Time;durP1;ratioP1;P1;durP2;ratioP2;P2;SDS_P1;SDS_P2;PMS_P1;PMS_P2;Temp;Humidity;BMP_temperature;BMP_pressure;BME280_temperature;BME280_humidity;BME280_pressure;Samples;Min_cycle;Max_cycle;Signal;HPM_P1;HPM_P2
2022/08/23 00:01:58;;;;;;;10.60;7.10;;;;;;;;;;5073114;28;20047;-69
2022/08/23 00:04:28;;;;;;;13.77;8.25;;;;;;;;;;5073226;28;20139;-69
2022/08/23 00:06:55;;;;;;;12.98;7.65;;;;;;;;;;5072883;28;20107;-69
2022/08/23 00:09:23;;;;;;;13.43;7.80;;;;;;;;;;5073359;28;20474;-69
2022/08/23 00:11:54;;;;;;;11.38;7.40;;;;;;;;;;5072291;28;20044;-69
2022/08/23 00:14:22;;;;;;;14.02;8.75;;;;;;;;;;5072065;28;20539;-69
2022/08/23 00:16:48;;;;;;;12.27;7.68;;;;;;;;;;5072869;28;20045;-69
2022/08/23 00:19:16;;;;;;;10.52;8.05;;;;;;;;;;5074182;28;20102;-69
2022/08/23 00:21:43;;;;;;;10.93;7.68;;;;;;;;;;5073968;28;20493;-69
2022/08/23 00:24:11;;;;;;;12.75;8.38;;;;;;;;;;5093226;28;20078;-69
2022/08/23 00:26:55;;;;;;;18.02;7.45;;;;;;;;;;5074090;28;20052;-68
2022/08/23 00:29:22;;;;;;;13.68;7.55;;;;;;;;;;5074981;28;20040;-69
2022/08/23 00:31:49;;;;;;;12.40;7.43;;;;;;;;;;5074658;28;20127;-69
2022/08/23 00:34:15;;;;;;;12.80;8.25;;;;;;;;;;5074297;28;20044;-69
2022/08/23 00:36:41;;;;;;;10.57;7.18;;;;;;;;;;5074569;28;20040;-69
2022/08/23 00:39:07;;;;;;;13.00;7.50;;;;;;;;;;5092522;28;20071;-69
2022/08/23 00:41:34;;;;;;;13.90;7.72;;;;;;;;;;5091806;28;20040;-69
2022/08/23 00:49:39;;;;;;;12.77;8.32;;;;;;;;;;5092713;28;20076;-68
2022/08/23 00:52:08;;;;;;;15.27;8.73;;;;;;;;;;5092508;28;20431;-69
2022/08/23 00:54:35;;;;;;;9.63;7.03;;;;;;;;;;5091524;28;20039;-69
2022/08/23 00:57:04;;;;;;;10.77;7.35;;;;;;;;;;5074279;28;20055;-69
2022/08/23 00:59:31;;;;;;;11.07;7.28;;;;;;;;;;5074261;28;20089;-69
2022/08/23 01:01:58;;;;;;;11.25;7.22;;;;;;;;;;5073469;28;20101;-69
2022/08/23 01:04:26;;;;;;;10.80;7.55;;;;;;;;;;5092438;28;20046;-69
2022/08/23 01:07:02;;;;;;;11.35;7.85;;;;;;;;;;5074157;28;20111;-69
2022/08/23 01:09:28;;;;;;;14.73;8.25;;;;;;;;;;5091246;28;20114;-69
2022/08/23 01:11:58;;;;;;;13.80;8.32;;;;;;;;;;5057338;28;20036;-69
2022/08/23 01:14:31;;;;;;;13.32;8.63;;;;;;;;;;5074042;28;20040;-69
2022/08/23 01:17:02;;;;;;;12.45;7.93;;;;;;;;;;5091251;28;20101;-69
2022/08/23 01:19:29;;;;;;;13.52;7.78;;;;;;;;;;5074115;28;20408;-69
2022/08/23 01:22:16;;;;;;;12.35;7.57;;;;;;;;;;5091028;28;20503;-69
2022/08/23 01:24:42;;;;;;;12.95;8.48;;;;;;;;;;5092066;28;20048;-69
2022/08/23 01:27:11;;;;;;;18.23;9.15;;;;;;;;;;5074368;28;20036;-69
2022/08/23 01:29:37;;;;;;;14.57;9.02;;;;;;;;;;5091379;28;20401;-69
2022/08/23 01:32:04;;;;;;;24.45;10.20;;;;;;;;;;5091633;28;20149;-69
2022/08/23 01:34:30;;;;;;;16.42;9.48;;;;;;;;;;5073923;28;20044;-69
2022/08/23 01:36:56;;;;;;;11.40;7.50;;;;;;;;;;5091176;28;20389;-69
2022/08/23 01:39:22;;;;;;;13.35;9.23;;;;;;;;;;5073820;28;20036;-69
2022/08/23 01:41:49;;;;;;;13.65;9.20;;;;;;;;;;5073743;28;20127;-69
2022/08/23 01:44:15;;;;;;;14.38;9.25;;;;;;;;;;5091331;28;20055;-69
2022/08/23 01:46:43;;;;;;;16.45;9.52;;;;;;;;;;5073783;28;20075;-69
2022/08/23 01:49:09;;;;;;;10.30;7.38;;;;;;;;;;5092035;28;20507;-68
2022/08/23 01:51:36;;;;;;;15.52;8.98;;;;;;;;;;5090982;28;20477;-69
2022/08/23 01:54:02;;;;;;;14.63;11.10;;;;;;;;;;5073640;28;20044;-69
2022/08/23 01:56:29;;;;;;;18.42;12.23;;;;;;;;;;5073781;28;20048;-69
2022/08/23 01:58:55;;;;;;;19.23;12.10;;;;;;;;;;5090900;28;20404;-69
2022/08/23 02:01:21;;;;;;;19.48;12.05;;;;;;;;;;5073755;28;20093;-69
2022/08/23 02:03:47;;;;;;;12.95;10.98;;;;;;;;;;5091962;28;20032;-69
2022/08/23 02:06:13;;;;;;;16.13;11.85;;;;;;;;;;5091316;28;20181;-69
2022/08/23 02:11:25;;;;;;;15.82;12.05;;;;;;;;;;5090924;28;20075;-69
2022/08/23 02:13:52;;;;;;;19.67;12.80;;;;;;;;;;5073386;28;20053;-69
2022/08/23 02:16:25;;;;;;;15.93;11.15;;;;;;;;;;5057390;28;20040;-69
2022/08/23 02:18:52;;;;;;;19.63;12.50;;;;;;;;;;5090744;28;20078;-69
2022/08/23 02:21:18;;;;;;;16.65;10.95;;;;;;;;;;5070156;28;20500;-69
2022/08/23 02:23:44;;;;;;;18.67;11.52;;;;;;;;;;5069867;28;20044;-69
2022/08/23 02:26:11;;;;;;;16.85;12.55;;;;;;;;;;5070848;28;20040;-69
2022/08/23 02:28:37;;;;;;;17.20;12.60;;;;;;;;;;5070085;28;20044;-69
2022/08/23 02:31:03;;;;;;;16.55;12.88;;;;;;;;;;5071247;28;20502;-69
2022/08/23 02:33:29;;;;;;;16.38;12.63;;;;;;;;;;5069171;28;20037;-69
2022/08/23 02:35:55;;;;;;;20.40;13.80;;;;;;;;;;5070142;28;20123;-69
2022/08/23 02:38:21;;;;;;;17.48;13.52;;;;;;;;;;5071487;28;20394;-69
2022/08/23 02:40:47;;;;;;;16.30;13.63;;;;;;;;;;5069179;28;20481;-69
2022/08/23 02:43:13;;;;;;;17.45;12.95;;;;;;;;;;5070122;28;20044;-69
2022/08/23 02:45:40;;;;;;;18.60;13.27;;;;;;;;;;5074139;28;20446;-69
2022/08/23 02:48:07;;;;;;;17.83;12.00;;;;;;;;;;5072657;28;20040;-69
2022/08/23 02:50:33;;;;;;;16.42;12.68;;;;;;;;;;5074606;28;20059;-69
2022/08/23 02:53:00;;;;;;;15.82;12.25;;;;;;;;;;5074579;28;20051;-69
2022/08/23 02:55:26;;;;;;;19.33;13.73;;;;;;;;;;5072549;28;20040;-69
2022/08/23 02:57:52;;;;;;;16.77;13.10;;;;;;;;;;5073882;28;20036;-69
2022/08/23 03:00:19;;;;;;;18.88;13.82;;;;;;;;;;5056570;28;20498;-68
2022/08/23 03:02:46;;;;;;;16.15;12.50;;;;;;;;;;5072587;28;20056;-69
2022/08/23 03:05:12;;;;;;;16.83;12.65;;;;;;;;;;5074670;28;20032;-68
2022/08/23 03:07:38;;;;;;;16.20;11.90;;;;;;;;;;5072461;28;20041;-69
2022/08/23 03:10:05;;;;;;;17.77;12.68;;;;;;;;;;5072821;28;20044;-69
2022/08/23 03:12:31;;;;;;;17.92;14.20;;;;;;;;;;5074431;28;20047;-68
2022/08/23 03:14:57;;;;;;;19.00;13.70;;;;;;;;;;5073553;28;20044;-69
2022/08/23 03:17:23;;;;;;;17.30;14.25;;;;;;;;;;5067202;28;20048;-68
2022/08/23 03:19:51;;;;;;;17.25;13.82;;;;;;;;;;5081949;28;20123;-68
2022/08/23 03:22:17;;;;;;;18.38;12.48;;;;;;;;;;5075576;28;20396;-69
2022/08/23 03:24:44;;;;;;;18.65;14.50;;;;;;;;;;5075965;28;20388;-68
2022/08/23 03:27:10;;;;;;;20.23;14.88;;;;;;;;;;5094583;28;20032;-69
2022/08/23 03:29:36;;;;;;;15.27;11.32;;;;;;;;;;5075551;28;20032;-68
2022/08/23 03:32:03;;;;;;;22.52;14.20;;;;;;;;;;5075225;28;20046;-68
2022/08/23 03:34:29;;;;;;;15.98;12.52;;;;;;;;;;5075975;28;20385;-68
2022/08/23 03:36:55;;;;;;;17.50;13.68;;;;;;;;;;5075347;28;20043;-68
2022/08/23 03:39:21;;;;;;;17.10;13.20;;;;;;;;;;5094066;28;20039;-69
2022/08/23 03:41:48;;;;;;;17.60;13.38;;;;;;;;;;5044038;28;20090;-69
2022/08/23 03:44:14;;;;;;;17.08;13.43;;;;;;;;;;5055388;28;20482;-69
2022/08/23 03:46:40;;;;;;;17.92;12.80;;;;;;;;;;5055860;28;20044;-69
2022/08/23 03:49:06;;;;;;;21.33;14.07;;;;;;;;;;5055527;28;20041;-69
2022/08/23 03:51:33;;;;;;;23.02;15.60;;;;;;;;;;5077717;28;20036;-69
2022/08/23 03:53:59;;;;;;;17.15;13.40;;;;;;;;;;5075519;28;20052;-68
2022/08/23 03:56:33;;;;;;;23.90;13.55;;;;;;;;;;5093583;28;20043;-69
2022/08/23 03:59:00;;;;;;;18.65;12.55;;;;;;;;;;5074971;28;20039;-69
2022/08/23 04:01:26;;;;;;;20.98;14.60;;;;;;;;;;5093472;28;20044;-69
2022/08/23 04:03:52;;;;;;;14.77;11.63;;;;;;;;;;5092581;28;20040;-69
2022/08/23 04:06:18;;;;;;;16.35;12.20;;;;;;;;;;5093354;28;20032;-69
2022/08/23 04:08:45;;;;;;;19.60;12.43;;;;;;;;;;5092982;28;20523;-69
2022/08/23 04:11:13;;;;;;;17.20;12.70;;;;;;;;;;5090762;28;20433;-69
2022/08/23 04:13:39;;;;;;;17.05;12.07;;;;;;;;;;5055124;28;20124;-69
2022/08/23 04:16:06;;;;;;;16.88;12.77;;;;;;;;;;5054993;28;20079;-69
2022/08/23 04:18:33;;;;;;;16.05;11.90;;;;;;;;;;5072076;28;20044;-69
2022/08/23 04:21:00;;;;;;;15.25;11.40;;;;;;;;;;5072411;28;20049;-68
2022/08/23 04:23:26;;;;;;;15.60;13.20;;;;;;;;;;5073011;28;20053;-68
2022/08/23 04:25:53;;;;;;;17.35;13.48;;;;;;;;;;5054368;28;20040;-69
2022/08/23 04:28:20;;;;;;;15.68;12.52;;;;;;;;;;5055013;28;20048;-68
2022/08/23 04:30:46;;;;;;;16.55;11.77;;;;;;;;;;5054402;28;20075;-69
2022/08/23 04:33:12;;;;;;;17.30;13.38;;;;;;;;;;5054168;28;20048;-69
2022/08/23 04:35:40;;;;;;;13.90;11.75;;;;;;;;;;5054500;28;20044;-68
2022/08/23 04:38:06;;;;;;;15.57;12.63;;;;;;;;;;5054885;28;20079;-69
2022/08/23 04:43:16;;;;;;;19.67;13.25;;;;;;;;;;5054783;28;20048;-68
2022/08/23 04:45:43;;;;;;;14.77;10.52;;;;;;;;;;5072431;28;20040;-68
2022/08/23 04:48:09;;;;;;;18.27;13.43;;;;;;;;;;5054362;28;20041;-68
2022/08/23 04:50:35;;;;;;;15.70;12.05;;;;;;;;;;5054319;28;20124;-69
2022/08/23 04:53:02;;;;;;;18.40;11.50;;;;;;;;;;5071660;28;20442;-68
2022/08/23 04:55:28;;;;;;;15.02;11.45;;;;;;;;;;5072156;28;20547;-68
2022/08/23 04:57:54;;;;;;;18.98;13.63;;;;;;;;;;5054487;28;20072;-68
2022/08/23 05:00:21;;;;;;;15.88;12.02;;;;;;;;;;5053809;28;20044;-68
2022/08/23 05:02:47;;;;;;;16.58;12.73;;;;;;;;;;5071820;28;20060;-68
2022/08/23 05:05:13;;;;;;;15.77;12.07;;;;;;;;;;5054551;28;20079;-68
2022/08/23 05:07:40;;;;;;;15.75;11.90;;;;;;;;;;5084855;28;20044;-68
2022/08/23 05:10:07;;;;;;;18.00;11.48;;;;;;;;;;5092345;28;20035;-68
2022/08/23 05:12:33;;;;;;;13.38;10.77;;;;;;;;;;5074438;28;20396;-68
2022/08/23 05:14:59;;;;;;;16.98;12.00;;;;;;;;;;5091246;28;20040;-68
2022/08/23 05:17:25;;;;;;;17.30;12.98;;;;;;;;;;5092125;28;20093;-68
2022/08/23 05:19:52;;;;;;;17.08;12.68;;;;;;;;;;5073841;28;20048;-68
2022/08/23 05:22:18;;;;;;;18.48;12.75;;;;;;;;;;5072770;28;20052;-68
2022/08/23 05:24:44;;;;;;;13.23;10.60;;;;;;;;;;5073805;28;20044;-68
2022/08/23 05:27:10;;;;;;;13.00;10.77;;;;;;;;;;5074399;28;20040;-68
2022/08/23 05:29:36;;;;;;;13.63;11.23;;;;;;;;;;5091105;28;20050;-68
2022/08/23 05:32:02;;;;;;;16.90;13.00;;;;;;;;;;5091273;28;20495;-68
2022/08/23 05:34:28;;;;;;;15.63;13.05;;;;;;;;;;5092090;28;20127;-69
2022/08/23 05:36:54;;;;;;;15.63;11.88;;;;;;;;;;5091353;28;20048;-69
2022/08/23 05:39:21;;;;;;;17.77;14.20;;;;;;;;;;5074061;28;20044;-69
2022/08/23 05:41:47;;;;;;;18.05;13.48;;;;;;;;;;5073746;28;20041;-69
2022/08/23 05:44:13;;;;;;;17.42;13.32;;;;;;;;;;5073081;28;20098;-69
2022/08/23 05:46:40;;;;;;;19.35;13.05;;;;;;;;;;5070509;28;20036;-69
2022/08/23 05:49:06;;;;;;;17.10;12.82;;;;;;;;;;5053208;28;20047;-69
2022/08/23 05:51:34;;;;;;;17.63;13.75;;;;;;;;;;5071553;28;20044;-69
2022/08/23 05:54:01;;;;;;;16.58;13.52;;;;;;;;;;5071644;28;20401;-68
2022/08/23 05:56:28;;;;;;;20.02;14.55;;;;;;;;;;5052839;28;20575;-69
2022/08/23 05:58:57;;;;;;;18.75;13.73;;;;;;;;;;5053472;28;20131;-69
2022/08/23 06:01:23;;;;;;;19.98;14.75;;;;;;;;;;5071745;28;20041;-69
2022/08/23 06:03:49;;;;;;;19.25;12.80;;;;;;;;;;5070840;28;20041;-69
2022/08/23 06:06:16;;;;;;;18.08;15.43;;;;;;;;;;5071833;28;20501;-69
2022/08/23 06:08:45;;;;;;;17.17;14.68;;;;;;;;;;5036841;28;20044;-69
2022/08/23 06:11:18;;;;;;;16.27;13.57;;;;;;;;;;5070980;28;20064;-69
2022/08/23 06:13:46;;;;;;;18.75;15.07;;;;;;;;;;5053443;28;20381;-69
2022/08/23 06:16:13;;;;;;;17.77;13.15;;;;;;;;;;5037470;28;20464;-69
2022/08/23 06:18:39;;;;;;;21.52;15.25;;;;;;;;;;5070778;28;20033;-69
2022/08/23 06:21:10;;;;;;;22.23;15.57;;;;;;;;;;5056728;28;20599;-69
2022/08/23 06:23:36;;;;;;;16.60;14.20;;;;;;;;;;5057555;28;20072;-69
2022/08/23 06:26:09;;;;;;;16.58;13.13;;;;;;;;;;5074248;28;20040;-69
2022/08/23 06:28:35;;;;;;;17.95;15.13;;;;;;;;;;5057271;28;20052;-69
2022/08/23 06:31:01;;;;;;;21.77;14.63;;;;;;;;;;5075016;28;20442;-69
2022/08/23 06:33:28;;;;;;;17.23;13.10;;;;;;;;;;5074083;28;20072;-69
2022/08/23 06:36:05;;;;;;;18.63;13.63;;;;;;;;;;5056908;28;20093;-69
2022/08/23 06:38:33;;;;;;;16.25;14.25;;;;;;;;;;5056037;28;20047;-69
2022/08/23 06:41:03;;;;;;;17.75;13.80;;;;;;;;;;5074958;28;20036;-70
2022/08/23 06:43:29;;;;;;;15.70;13.18;;;;;;;;;;5074827;28;20055;-71
2022/08/23 06:46:05;;;;;;;18.75;13.63;;;;;;;;;;5063113;28;20074;-71
2022/08/23 06:48:30;;;;;;;15.70;12.35;;;18.50;99.90;;;;;;5076993;28;20072;-72
2022/08/23 06:50:56;;;;;;;19.27;12.13;;;17.90;99.90;;;;;;5076951;28;20076;-71
2022/08/23 06:53:22;;;;;;;14.98;13.23;;;18.30;99.90;;;;;;5059388;28;20044;-71
2022/08/23 06:55:48;;;;;;;16.13;11.63;;;;;;;;;;5076438;28;20044;-72
2022/08/23 06:58:14;;;;;;;15.70;11.95;;;;;;;;;;5077064;28;20547;-71
2022/08/23 07:00:40;;;;;;;18.52;12.95;;;;;;;;;;5094063;28;20051;-71
2022/08/23 07:03:06;;;;;;;13.00;10.82;;;18.90;99.90;;;;;;5073295;28;20036;-72
2022/08/23 07:05:32;;;;;;;15.35;11.82;;;19.00;99.90;;;;;;5088365;28;20043;-71
2022/08/23 07:07:58;;;;;;;13.10;11.18;;;;;;;;;;5078758;28;20116;-71
2022/08/23 07:10:24;;;;;;;16.50;11.88;;;;;;;;;;5092296;28;20046;-70
2022/08/23 07:12:50;;;;;;;14.52;10.45;;;;;;;;;;5082500;28;20123;-70
2022/08/23 07:15:16;;;;;;;12.98;10.73;;;;;;;;;;5053380;28;20044;-71
2022/08/23 07:17:42;;;;;;;13.00;10.77;;;;;;;;;;5080715;28;20044;-71
2022/08/23 07:20:08;;;;;;;13.23;10.52;;;19.40;99.90;;;;;;5056526;28;20118;-71
2022/08/23 07:22:34;;;;;;;14.75;10.50;;;;;;;;;;5083401;28;20564;-71
2022/08/23 07:25:01;;;;;;;14.27;10.73;;;19.70;99.90;;;;;;5078602;28;20047;-72
2022/08/23 07:27:27;;;;;;;13.98;10.05;;;;;;;;;;5082590;28;20034;-71
2022/08/23 07:29:54;;;;;;;13.70;9.25;;;;;;;;;;5059942;28;20036;-72
2022/08/23 07:32:20;;;;;;;14.45;9.30;;;;;;;;;;5070788;28;20063;-71
2022/08/23 07:34:45;;;;;;;13.70;9.70;;;20.30;99.90;;;;;;5085778;28;20097;-72
2022/08/23 07:37:12;;;;;;;12.25;9.73;;;;;;;;;;5073400;28;20452;-71
2022/08/23 07:39:38;;;;;;;10.95;9.55;;;;;;;;;;5073344;28;20101;-72
2022/08/23 07:42:05;;;;;;;13.35;9.68;;;;;;;;;;5074823;28;20044;-71
2022/08/23 07:44:33;;;;;;;12.40;8.57;;;;;;;;;;5068510;28;20036;-71
2022/08/23 07:46:58;;;;;;;12.77;9.85;;;20.70;99.90;;;;;;5077592;28;20044;-71
2022/08/23 07:49:24;;;;;;;11.27;9.07;;;20.50;99.90;;;;;;5088472;28;20101;-71
2022/08/23 07:51:50;;;;;;;9.32;8.30;;;20.80;99.90;;;;;;5066907;28;20040;-71
2022/08/23 07:54:18;;;;;;;12.55;8.45;;;20.90;99.90;;;;;;5082253;28;20041;-71
2022/08/23 07:56:44;;;;;;;9.73;7.53;;;22.10;99.90;;;;;;5092561;28;20040;-71
2022/08/23 07:59:10;;;;;;;10.55;7.25;;;21.10;99.90;;;;;;5058979;28;20036;-71
2022/08/23 08:01:36;;;;;;;11.95;8.48;;;21.30;99.90;;;;;;5093134;28;20089;-72
2022/08/23 08:04:04;;;;;;;13.55;7.45;;;21.20;99.90;;;;;;5070619;28;20036;-71
2022/08/23 08:06:39;;;;;;;10.18;7.22;;;21.60;99.90;;;;;;5073491;28;20385;-71
2022/08/23 08:09:08;;;;;;;9.57;6.88;;;;;;;;;;5063501;28;20044;-72
2022/08/23 08:11:35;;;;;;;9.73;6.50;;;;;;;;;;5056091;28;20054;-72
2022/08/23 08:14:07;;;;;;;9.50;7.53;;;;;;;;;;5043497;28;20086;-71
2022/08/23 08:16:38;;;;;;;9.80;7.43;;;;;;;;;;5076075;28;20099;-73
2022/08/23 08:19:07;;;;;;;9.88;6.35;;;;;;;;;;5071017;28;20109;-72
2022/08/23 08:21:33;;;;;;;8.73;6.35;;;;;;;;;;5059170;28;20071;-73
2022/08/23 08:23:59;;;;;;;10.15;7.75;;;;;;;;;;5068467;28;20595;-70
2022/08/23 08:26:26;;;;;;;11.43;6.75;;;;;;;;;;5062173;28;20058;-71
2022/08/23 08:28:55;;;;;;;10.85;6.30;;;22.30;99.90;;;;;;5074705;28;20037;-71
2022/08/23 08:31:21;;;;;;;10.93;6.35;;;22.10;99.90;;;;;;5087031;28;20122;-74
2022/08/23 08:33:49;;;;;;;13.40;6.40;;;;;;;;;;5070815;28;20456;-74
2022/08/23 08:36:35;;;;;;;11.85;6.75;;;;;;;;;;5070323;28;20044;-71
2022/08/23 08:39:04;;;;;;;8.77;5.55;;;;;;;;;;5069903;28;20040;-71
2022/08/23 08:41:48;;;;;;;13.10;6.40;;;;;;;;;;5069742;28;20084;-71
2022/08/23 08:44:18;;;;;;;10.35;5.32;;;;;;;;;;5071365;28;20079;-71
2022/08/23 08:46:46;;;;;;;10.48;5.20;;;;;;;;;;5087383;28;20039;-74
2022/08/23 08:49:23;;;;;;;9.98;5.88;;;;;;;;;;5089960;28;20052;-73
2022/08/23 08:51:53;;;;;;;7.05;4.57;;;;;;;;;;5081519;28;20044;-74
2022/08/23 08:54:22;;;;;;;9.23;4.50;;;;;;;;;;5065945;28;20048;-74
2022/08/23 08:56:56;;;;;;;10.65;4.88;;;23.40;99.90;;;;;;5053640;28;20045;-76
2022/08/23 08:59:35;;;;;;;9.07;5.13;;;23.50;99.90;;;;;;5088710;28;20092;-73
2022/08/23 09:02:01;;;;;;;8.88;5.13;;;;;;;;;;5071424;28;20102;-73
2022/08/23 09:04:28;;;;;;;8.88;4.25;;;;;;;;;;5070753;28;20070;-73
2022/08/23 09:07:13;;;;;;;12.93;4.85;;;;;;;;;;5066926;28;20051;-74
2022/08/23 09:09:55;;;;;;;8.90;4.50;;;;;;;;;;5064860;28;20043;-73
2022/08/23 09:12:24;;;;;;;7.88;4.57;;;;;;;;;;5066369;28;20075;-73
2022/08/23 09:15:02;;;;;;;9.15;4.90;;;;;;;;;;5069300;28;20075;-73
2022/08/23 09:17:33;;;;;;;7.80;4.80;;;;;;;;;;5070487;28;20040;-73
2022/08/23 09:20:02;;;;;;;11.90;5.07;;;;;;;;;;5084114;28;20094;-72
2022/08/23 09:22:33;;;;;;;8.88;5.05;;;;;;;;;;5063640;28;20054;-71
2022/08/23 09:24:59;;;;;;;10.48;5.20;;;;;;;;;;5077613;28;20038;-71
2022/08/23 09:27:26;;;;;;;10.18;5.40;;;;;;;;;;5052014;28;20071;-72
2022/08/23 09:29:55;;;;;;;7.22;4.43;;;;;;;;;;5080185;28;20127;-69
2022/08/23 09:32:27;;;;;;;8.32;4.70;;;;;;;;;;5071098;28;20079;-69
2022/08/23 09:35:04;;;;;;;10.20;5.25;;;;;;;;;;5069076;28;20498;-69
2022/08/23 09:37:30;;;;;;;7.20;4.32;;;;;;;;;;5082576;28;20044;-69
2022/08/23 09:40:34;;;;;;;8.63;5.13;;;24.50;99.90;;;;;;5077800;28;20045;-70
2022/08/23 09:43:07;;;;;;;8.15;4.18;;;24.70;99.90;;;;;;5080441;28;20487;-70
2022/08/23 09:45:36;;;;;;;7.93;3.70;;;24.90;99.90;;;;;;5067426;28;20417;-68
2022/08/23 09:48:04;;;;;;;8.00;4.15;;;24.90;99.90;;;;;;5062754;28;20032;-70
2022/08/23 09:50:41;;;;;;;8.73;4.70;;;24.50;99.90;;;;;;5050130;28;20165;-69
2022/08/23 09:53:09;;;;;;;9.30;4.30;;;25.00;99.90;;;;;;5089777;28;20044;-71
2022/08/23 09:55:44;;;;;;;7.95;4.35;;;24.80;99.90;;;;;;5093890;28;20047;-70
2022/08/23 09:58:18;;;;;;;11.18;4.97;;;24.70;99.90;;;;;;5075801;28;20146;-75
2022/08/23 10:00:45;;;;;;;;;;;24.70;99.90;;;;;;5065720;28;20461;-68
2022/08/23 10:03:25;;;;;;;8.75;4.60;;;24.70;99.90;;;;;;5077294;28;19924;-69
2022/08/23 10:05:54;;;;;;;9.63;5.45;;;;;;;;;;5095659;28;20159;-69
2022/08/23 10:08:34;;;;;;;11.35;4.88;;;;;;;;;;5077713;28;20039;-69
2022/08/23 10:11:21;;;;;;;9.57;5.00;;;;;;;;;;5095234;28;20036;-69
2022/08/23 10:13:47;;;;;;;7.07;5.13;;;;;;;;;;5077197;28;20529;-69
2022/08/23 10:16:21;;;;;;;10.60;5.65;;;;;;;;;;5095764;28;20397;-68
2022/08/23 10:19:17;;;;;;;12.10;5.07;;;24.90;99.90;;;;;;5076902;28;20044;-68
2022/08/23 10:22:02;;;;;;;9.50;5.43;;;25.30;99.90;;;;;;5095015;28;20056;-68
2022/08/23 10:24:44;;;;;;;7.80;4.95;;;25.20;99.90;;;;;;5076481;28;20044;-68
2022/08/23 10:30:19;;;;;;;12.38;5.63;;;25.30;99.90;;;;;;5095793;28;20051;-68
2022/08/23 10:32:45;;;;;;;9.05;4.97;;;;;;;;;;5094198;28;20048;-68
2022/08/23 10:35:44;;;;;;;10.88;5.85;;;25.20;99.90;;;;;;5095478;28;20047;-68
2022/08/23 10:38:31;;;;;;;12.45;6.13;;;25.00;99.90;;;;;;5076424;28;20048;-68
2022/08/23 10:41:12;;;;;;;7.97;5.88;;;25.00;99.90;;;;;;5095158;28;20400;-68
2022/08/23 10:43:38;;;;;;;10.63;4.80;;;;;;;;;;5076869;28;20047;-68
2022/08/23 10:46:06;;;;;;;8.38;5.00;;;25.10;99.90;;;;;;5076383;28;20035;-68
2022/08/23 10:48:47;;;;;;;10.45;3.85;;;25.50;99.90;;;;;;5094714;28;20452;-68
2022/08/23 10:51:39;;;;;;;7.80;4.07;;;25.50;99.90;;;;;;5077365;28;20040;-68
2022/08/23 10:54:23;;;;;;;7.10;4.05;;;25.50;99.90;;;;;;5068744;28;20056;-68
2022/08/23 10:56:50;;;;;;;8.07;4.20;;;25.50;99.90;;;;;;5076510;28;20044;-68
2022/08/23 10:59:26;;;;;;;8.75;4.00;;;25.40;99.90;;;;;;5076168;28;20051;-69
2022/08/23 11:01:51;;;;;;;11.10;4.57;;;25.60;99.90;;;;;;5094917;28;20044;-68
2022/08/23 11:04:29;;;;;;;8.50;4.10;;;25.60;99.90;;;;;;5094803;28;20115;-68
2022/08/23 11:06:59;;;;;;;8.63;3.90;;;;;;;;;;5075160;28;20052;-68
2022/08/23 11:09:28;;;;;;;6.05;3.55;;;25.80;99.90;;;;;;5094527;28;20040;-68
2022/08/23 11:12:12;;;;;;;6.95;3.30;;;;;;;;;;5076632;28;20044;-68
2022/08/23 11:15:06;;;;;;;8.65;4.07;;;25.90;99.90;;;;;;5075726;28;20135;-68
2022/08/23 11:17:50;;;;;;;8.07;3.92;;;25.90;99.90;;;;;;5094268;28;20044;-68
2022/08/23 11:20:53;;;;;;;7.88;3.85;;;25.80;99.90;;;;;;5072163;28;20060;-68
2022/08/23 11:23:34;;;;;;;7.13;3.80;;;25.90;99.90;;;;;;5074329;28;20056;-68
2022/08/23 11:26:00;;;;;;;8.30;3.60;;;26.10;99.90;;;;;;5055949;28;20041;-68
2022/08/23 11:28:26;;;;;;;6.75;3.50;;;26.20;99.90;;;;;;5073350;28;20097;-67
2022/08/23 11:30:54;;;;;;;8.52;3.47;;;26.20;99.90;;;;;;5072965;28;20040;-68
2022/08/23 11:33:33;;;;;;;8.50;3.28;;;26.30;99.90;;;;;;5074250;28;20196;-67
2022/08/23 11:36:22;;;;;;;7.15;3.67;;;26.40;99.90;;;;;;5073086;28;20120;-68
2022/08/23 11:38:48;;;;;;;7.00;3.15;;;;;;;;;;5073988;28;20051;-68
2022/08/23 11:41:26;;;;;;;7.38;3.22;;;26.30;99.90;;;;;;5073359;28;20044;-68
2022/08/23 11:43:54;;;;;;;5.68;2.60;;;26.40;99.90;;;;;;5072602;28;20105;-68
2022/08/23 11:46:26;;;;;;;6.93;3.50;;;26.60;99.90;;;;;;5072804;28;20040;-68
2022/08/23 11:48:54;;;;;;;7.95;3.30;;;26.70;99.90;;;;;;5072681;28;20036;-68
2022/08/23 11:52:14;;;;;;;6.80;3.10;;;26.60;99.90;;;;;;5074036;28;20072;-68
2022/08/23 11:54:46;;;;;;;6.75;3.15;;;26.20;99.90;;;;;;5018044;28;20061;-69
2022/08/23 11:57:35;;;;;;;7.45;3.15;;;26.20;99.90;;;;;;5064699;28;20055;-69
2022/08/23 12:00:18;;;;;;;7.18;2.88;;;26.70;99.90;;;;;;5072178;28;20124;-68
2022/08/23 12:03:00;;;;;;;7.47;3.20;;;26.90;99.90;;;;;;5072110;28;20707;-68
2022/08/23 12:05:40;;;;;;;6.82;2.88;;;26.90;92.30;;;;;;5073140;28;20047;-69
2022/08/23 12:08:06;;;;;;;5.93;3.28;;;27.00;91.40;;;;;;5072203;28;20044;-69
2022/08/23 12:10:45;;;;;;;7.97;3.03;;;27.00;90.70;;;;;;5071212;28;20051;-69
2022/08/23 12:13:20;;;;;;;6.40;2.95;;;27.20;99.90;;;;;;5072378;28;20390;-69
2022/08/23 12:16:13;;;;;;;7.93;3.50;;;27.10;90.30;;;;;;5072530;28;20485;-69
2022/08/23 12:18:48;;;;;;;6.85;3.00;;;27.20;84.80;;;;;;5071807;28;20048;-69
2022/08/23 12:21:26;;;;;;;8.38;3.40;;;27.20;92.00;;;;;;5072157;28;20052;-69
2022/08/23 12:23:53;;;;;;;6.72;2.63;;;;;;;;;;5070657;28;20048;-69
2022/08/23 12:26:43;;;;;;;8.68;3.33;;;27.30;99.30;;;;;;5073106;28;20045;-69
2022/08/23 12:29:18;;;;;;;9.02;3.00;;;27.30;99.90;;;;;;5071769;28;20056;-69
2022/08/23 12:32:06;;;;;;;9.98;2.60;;;27.20;99.90;;;;;;5071801;28;20048;-69
2022/08/23 12:34:49;;;;;;;5.60;2.90;;;27.80;99.90;;;;;;5071413;28;20048;-69
2022/08/23 12:38:01;;;;;;;6.18;3.00;;;27.40;80.70;;;;;;5069786;28;20119;-70
2022/08/23 12:40:36;;;;;;;5.90;2.25;;;27.70;99.00;;;;;;5038625;28;20107;-71
2022/08/23 12:43:17;;;;;;;8.75;2.75;;;27.30;99.90;;;;;;5046653;28;20041;-69
2022/08/23 12:45:48;;;;;;;6.32;2.60;;;27.50;87.80;;;;;;5047860;28;20040;-67
2022/08/23 12:48:19;;;;;;;9.88;3.15;;;27.60;99.90;;;;;;5051833;28;20521;-67
2022/08/23 12:50:51;;;;;;;7.50;3.20;;;;;;;;;;5037225;28;20060;-68
2022/08/23 12:53:26;;;;;;;7.18;3.25;;;28.40;99.90;;;;;;5031054;28;20077;-66
2022/08/23 12:55:59;;;;;;;6.55;2.40;;;;;;;;;;5032591;28;20470;-65
2022/08/23 12:58:29;;;;;;;6.32;2.60;;;28.10;96.10;;;;;;5029055;28;20087;-65
2022/08/23 13:01:25;;;;;;;5.70;2.83;;;28.30;89.10;;;;;;5030930;28;20046;-65
2022/08/23 13:04:08;;;;;;;7.50;3.25;;;28.00;95.80;;;;;;5026116;28;20075;-66
2022/08/23 13:06:43;;;;;;;9.52;3.42;;;28.10;73.80;;;;;;5048555;28;20044;-66
2022/08/23 13:09:25;;;;;;;7.85;3.40;;;28.30;94.40;;;;;;5033235;28;20106;-67
2022/08/23 13:11:55;;;;;;;8.02;3.60;;;28.50;94.70;;;;;;5050258;28;20122;-67
2022/08/23 13:14:22;;;;;;;6.45;3.58;;;;;;;;;;5031777;28;20110;-67
2022/08/23 13:16:49;;;;;;;6.50;3.33;;;;;;;;;;5038750;28;20044;-67
2022/08/23 13:19:32;;;;;;;7.32;3.67;;;28.10;71.80;;;;;;5028450;28;20053;-67
2022/08/23 13:22:22;;;;;;;7.47;3.10;;;28.00;71.50;;;;;;5051799;28;20398;-67
2022/08/23 13:25:26;;;;;;;7.63;3.38;;;27.90;94.10;;;;;;5066806;28;20036;-66
2022/08/23 13:28:03;;;;;;;7.63;3.70;;;28.20;93.90;;;;;;5039946;28;20355;-66
2022/08/23 13:30:32;;;;;;;9.10;4.00;;;28.60;87.60;;;;;;5053818;28;20043;-67
2022/08/23 13:33:07;;;;;;;9.10;3.20;;;27.90;93.40;;;;;;5060996;28;20062;-66
2022/08/23 13:35:45;;;;;;;8.45;3.53;;;28.40;72.50;;;;;;5067095;28;20049;-66
2022/08/23 13:38:14;;;;;;;8.82;3.97;;;28.40;91.70;;;;;;5060507;28;20105;-66
2022/08/23 13:40:39;;;;;;;8.75;3.40;;;28.50;72.10;;;;;;5061173;28;20110;-66
2022/08/23 13:43:10;;;;;;;8.57;3.53;;;28.60;72.70;;;;;;5065905;28;20089;-66
2022/08/23 13:45:46;;;;;;;7.05;3.45;;;28.70;71.60;;;;;;5061382;28;20119;-66
2022/08/23 13:48:25;;;;;;;8.68;3.97;;;28.70;77.40;;;;;;5059298;28;20045;-66
2022/08/23 13:50:52;;;;;;;7.43;3.60;;;28.80;73.80;;;;;;5050914;28;20025;-68
2022/08/23 13:53:18;;;;;;;9.50;3.15;;;28.60;75.00;;;;;;5060264;28;20087;-68
2022/08/23 13:55:51;;;;;;;8.95;3.38;;;28.60;74.90;;;;;;5049894;28;20470;-66
2022/08/23 13:58:29;;;;;;;9.02;3.72;;;28.70;71.20;;;;;;5051428;28;20045;-66
2022/08/23 14:00:57;;;;;;;8.70;4.07;;;28.80;73.20;;;;;;5047784;28;20057;-66
2022/08/23 14:03:24;;;;;;;11.15;4.00;;;28.70;72.50;;;;;;5048127;28;20394;-67
2022/08/23 14:05:51;;;;;;;10.85;3.63;;;28.60;72.60;;;;;;5048921;28;20095;-67
2022/08/23 14:08:17;;;;;;;7.28;3.75;;;28.50;73.00;;;;;;5066692;28;20500;-67
2022/08/23 14:10:45;;;;;;;8.02;4.25;;;28.40;72.20;;;;;;5063032;28;20055;-67
2022/08/23 14:13:11;;;;;;;8.65;4.28;;;28.20;91.70;;;;;;5056986;28;20433;-67
2022/08/23 14:15:40;;;;;;;8.35;4.63;;;28.10;75.40;;;;;;5052143;28;20048;-67
2022/08/23 14:18:06;;;;;;;9.32;4.22;;;27.60;92.10;;;;;;5065181;28;20048;-67
2022/08/23 14:20:32;;;;;;;7.75;5.07;;;;;;;;;;5063131;28;20548;-67
2022/08/23 14:22:59;;;;;;;7.47;4.32;;;;;;;;;;5030072;28;20084;-67